Pagrindinis puslapis
METAR-TAF:

METAR-TAF

Oro uostai :

Odessa-Schlemeyer Field

Odessa, Teksasas, Jungtinės Amerikos Valstijos

platuma: 31-55-17N, ilguma: 102-23-30W, Aukštis: 914 m

Dabartinis oras

Ataskaita buvo paskelbta 43 minutes, ne 03:53 UTC
Vėjas 16 kt iš Rytų/Šiaurės Rytų su gūsio iki 22 kt
Temperatūra 22°C
Drėgmė 57%
Slėgis 1020 hPa
Matomumas: 16.1 km
Apsiniaukę ne aukštis 2300 ft

METAR: KODO 220353Z AUTO 07016G22KT 10SM OVC023 22/13 A3012 RMK AO2 SLP150 T02220128

Laikas: 23:36 (04:36 UTC)


TAF: trūkstamas

Orai ataskaitas ir orų prognozės (METAR, TAF).

turimą stotys yra geltonos ir raudonos taškus žemėlapyje.

Perkelti pele per norėdami pamatyti stoties vardą.

Tada spustelėkite, norėdami matyti oro stebėjimo ir prognozės.

Norėdami pakeisti žemėlapį: spustelėkite ant žalios mygtukų su juodo kryžiaus žemyn,; žalią mygtuką su brūkšneliu, jei norite nutolinti; arba žalių rodyklių gretimoms žemėlapius.


METAR-TAF: